Tiempo atmosférico en la estación meteorológica de Abla, Almería (885 m.)



Fecha
DESCASC
Temp. máxima en grados centígrados (hora)
DESCASC
Temp. mínima en grados centígrados (hora)
DESCASC
Temp. media en grados centígrados
DESCASC
Racha de viento máxima en m/sg (hora)
DESCASC
Velocidad máxima media en intervalos de 10 minutos(hora)
DESCASC
Precipitaciones diarias en mm
DESCASC
Precipitaciones de 00:00 a 06:00 en mm
DESCASC
Precipitaciones de 06:00 a 12:00 en mm
DESCASC
Precipitaciones de 12:00 a 18:00 en mm
DESCASC
Precipitaciones de 18:00 a 24:00 en mm
DESCASC
08-12-2019 17.9 (13:40) 6.4 (06:50) 12.1 8.06 (21:10) 3.89 (22:00) 0 0 0 0 0
07-12-2019 17.7 (14:10) 5.7 (01:50) 11.7 5.83 (16:00) 3.06 (15:50) 0 0 0 0 0
06-12-2019 15.1 (14:30) 6 (23:59) 10.6 6.11 (12:40) 2.78 (16:00) 0 0 0 0 0
05-12-2019 12.7 (13:20) 4.1 (00:00) 8.4 7.78 (13:30) 4.17 (13:10) 0 0 0 0 0
04-12-2019 14 (13:20) 5.7 (00:00) 9.8 7.78 (06:50) 3.89 (08:00) 0.6 0.6 0 0 0
03-12-2019 11 (15:50) 6.9 (00:00) 9 6.94 (08:40) 2.78 (23:20) 15.2 5.3 7 1.7 1.2
02-12-2019 13.6 (13:50) 4.8 (00:00) 9.2 8.89 (16:20) 3.89 (16:10) 3.9 0 0.1 0 3.8
01-12-2019 17.6 (14:50) 8.1 (00:00) 12.9 8.06 (04:10) 2.5 (07:20) 0 0 0 0 0
30-11-2019 21.4 (13:40) 9.1 (00:00) 15.3 6.67 (21:00) 2.5 (00:20) 0 0 0 0 0
29-11-2019 23 (13:20) 8.4 (00:00) 15.7 9.72 (06:10) 4.44 (06:20) 0 0 0 0 0
28-11-2019 20.9 (14:10) 8.1 (00:00) 14.5 9.17 (01:20) 3.06 (04:50) 0 0 0 0 0
27-11-2019 19.1 (14:10) 10.8 (00:00) 15 8.61 (15:20) 3.61 (16:20) 0 0 0 0 0
26-11-2019 19.6 (14:30) 9.4 (00:00) 14.5 7.22 (15:10) 3.06 (10:40) 0 0 0 0 0
25-11-2019 18.2 (15:20) 6.7 (00:00) 12.5 9.17 (03:00) 4.44 (03:10) 0 0 0 0 0
24-11-2019 14 (15:50) 4.9 (00:00) 9.5 9.72 (22:50) 4.17 (23:40) 0 0 0 0 0
23-11-2019 12.9 (13:40) 7 (00:00) 9.9 12.22 (13:20) 5.83 (11:20) 1.8 0.1 1.7 0 0
22-11-2019 13 (14:20) 6.6 (00:00) 9.8 9.72 (15:30) 4.44 (23:50) 5.6 0 0.2 0.1 5.3
21-11-2019 15.7 (12:40) 6 (00:00) 10.8 6.11 (06:20) 2.5 (06:20) 0 0 0 0 0
20-11-2019 13.8 (13:00) 3 (00:00) 8.4 4.17 (22:40) 2.5 (06:30) 0 0 0 0 0
19-11-2019 13.5 (15:50) 3.2 (00:00) 8.4 5.56 (12:40) 2.5 (06:20) 0 0 0 0 0
18-11-2019 12.2 (14:40) 4.2 (00:00) 8.2 9.17 (10:30) 5 (10:20) 8.5 6.2 2.3 0 0
17-11-2019 12.2 (13:30) 2.2 (00:00) 7.2 8.33 (10:30) 3.61 (23:50) 0.4 0 0 0.4 0
16-11-2019 12.6 (13:40) 2.4 (00:00) 7.5 7.78 (19:50) 3.33 (18:10) 0 0 0 0 0
15-11-2019 11 (11:40) 4.2 (00:00) 7.6 10 (05:10) 4.72 (05:00) 0 0 0 0 0
14-11-2019 14.3 (13:40) 6.1 (00:00) 10.2 13.33 (16:00) 5.28 (15:50) 1.7 0 0 1.7 0
13-11-2019 18.4 (12:40) 9.7 (00:00) 14 11.94 (11:00) 5.28 (16:20) 0 0 0 0 0
12-11-2019 16.8 (13:40) 7 (00:00) 11.9 9.17 (11:30) 3.89 (23:30) 0 0 0 0 0
11-11-2019 12.8 (16:10) 6 (07:50) 9.4 9.17 (11:10) 4.44 (11:10) 0 0 0 0 0
10-11-2019 12.3 (01:20) 7.8 (00:00) 10.1 11.11 (19:30) 5 (17:00) 0 0 0 0 0

Gráficas

Temp. máximas Temp. mínimas Temp. medias Precipitaciones Rachas de viento máximas Velocidades máximas media en intervalos de 10 minutos

Datos horarios

Fecha y hora oficial Temperatura (ºC) Velocidad del viento (km/h) Dirección del viento Racha (km/h) Dirección de racha Precipitación (mm) Presión (hPa) Tendencia (hPa) Humedad (%)
2019-12-09 23:00:00 11.4 0 Calma 16 Norte 0 927.4 0 34
2019-12-09 22:00:00 11.9 3 Noroeste 20 Noroeste 0 927.6 0.5 39
2019-12-09 21:00:00 11.4 7 Noroeste 19 Norte 0 927.2 0.6 42
2019-12-09 20:00:00 11.2 6 Noroeste 21 Norte 0 927.4 1.4 52
2019-12-09 19:00:00 13.4 10 Noroeste 21 Norte 0 927.1 1.2 44
2019-12-09 18:00:00 14.9 5 Norte 20 Sudoeste 0 926.6 0.7 39
2019-12-09 17:00:00 16.6 4 Norte 16 Sudoeste 0 926 -0.3 35
2019-12-09 16:00:00 19 4 Sudoeste 16 Sur 0 925.9 -0.9 32
2019-12-09 15:00:00 19.9 0 Calma 18 Sur 0 925.9 -2 35
2019-12-09 14:00:00 20.4 3 Noroeste 16 Norte 0 926.3 -1.6 36
2019-12-09 13:00:00 19.7 4 Noroeste 13 Sudoeste 0 926.8 -0.6 41
2019-12-09 12:00:00 16.8 3 Noroeste 15 Norte 0 927.9 1 52
2019-12-09 11:00:00 15.1 4 Sudoeste 15 Noroeste 0 927.9 1.6 58
2019-12-09 10:00:00 14.6 6 Noroeste 24 Norte 0 927.4 2 60
2019-12-09 09:00:00 13.1 9 Noroeste 26 Noroeste 0 926.9 1.8 66
2019-12-09 08:00:00 12 3 Noroeste 22 Sudoeste 0 926.3 1.2 68
2019-12-09 07:00:00 11.2 6 Sudoeste 27 Sur 0 925.4 0.1 66
2019-12-09 06:00:00 10.8 9 Noroeste 26 Noroeste 0 925.1 0 67
2019-12-09 05:00:00 10.7 11 Sur 26 Noroeste 0 925.1 -0.7 67
2019-12-09 04:00:00 10.4 7 Noroeste 29 Noroeste 0 925.3 -0.2 67
2019-12-09 03:00:00 11 9 Noroeste 27 Noroeste 0 925.1 -0.4 64
2019-12-09 02:00:00 11.3 6 Noroeste 23 Noroeste 0 925.8 1.2 60
2019-12-09 01:00:00 11.7 6 Noroeste 22 Norte 0 925.5 0.3 55
2019-12-09 00:00:00 11.5 11 Noroeste 24 Noroeste 0 925.5 0.6 56
2019-12-08 23:00:00 11.1 8 Noroeste 29 Noroeste 0 924.6 0.1 53
2019-12-08 22:00:00 11.7 14 Noroeste 29 Noroeste 0 925.2 1.2 51
2019-12-08 21:00:00 12.3 10 Norte 27 Noroeste 0 924.9 1.3 47
2019-12-08 20:00:00 13.1 8 Norte 20 Norte 0 924.5 1.4 41
2019-12-08 19:00:00 12.5 7 Noroeste 15 Norte 0 924 1 38
2019-12-08 18:00:00 13.3 4 Norte 17 Noroeste 0 923.6 0.6 34
2019-12-08 17:00:00 14.7 3 Oeste 20 Noroeste 0 923.1 -0.2 31
2019-12-08 16:00:00 16.8 6 Noroeste 21 Noroeste 0 923 -1 29
2019-12-08 15:00:00 17.2 7 Noroeste 24 Norte 0 923 -1.7 29
2019-12-08 14:00:00 17.3 7 Noroeste 22 Norte 0 923.3 -1.8 29
2019-12-08 13:00:00 17.2 6 Norte 16 Noroeste 0 924 -0.8 33
2019-12-08 12:00:00 15.5 6 Sudoeste 18 Sur 0 924.7 0.3 37
2019-12-08 11:00:00 13.9 4 Noroeste 11 Noroeste 0 925.1 1.1 46
2019-12-08 10:00:00 11 5 Noroeste 16 Sur 0 924.8 1 53
2019-12-08 09:00:00 8 5 Sudoeste 17 Norte 0 924.4 0.7 60
2019-12-08 08:00:00 6.9 7 Noroeste 15 Norte 0 924 0.2 64
2019-12-08 07:00:00 6.9 6 Noroeste 13 Noroeste 0 923.8 -0.1 67
2019-12-08 06:00:00 6.9 6 Noroeste 16 Sur 0 923.7 -0.4 67
2019-12-08 05:00:00 7.5 7 Noroeste 15 Noroeste 0 923.8 -0.4 66
2019-12-08 04:00:00 7.4 5 Noroeste 15 Noroeste 0 923.9 -0.4 68
2019-12-08 03:00:00 7.9 3 Noroeste 16 Sudoeste 0 924.1 -0.4 66
2019-12-08 02:00:00 8 2 Oeste 15 Sur 0 924.2 -0.1 66
2019-12-08 01:00:00 8.3 4 Sur 14 Sur 0 924.3 0.2 64
2019-12-08 00:00:00 8.4 3 Sur 13 Norte 0 924.5 0.6 64
2019-12-07 23:00:00 8.7 5 Norte 12 Noroeste 0 924.3 0.9 64
2019-12-07 22:00:00 8.5 7 Noroeste 14 Oeste 0 924.1 1.5 64
2019-12-07 21:00:00 8.8 3 Norte 10 Noroeste 0 923.9 1.5 61
2019-12-07 20:00:00 9.4 0 Calma 8 Noroeste 0 923.4 1.7 67
2019-12-07 19:00:00 10.4 0 Calma 8 Noroeste 0 922.6 1.3 64
2019-12-07 18:00:00 11.1 3 Norte 13 Este 0 922.4 1.4 65
2019-12-07 17:00:00 13 7 Nordeste 19 Este 0 921.7 0.4 49
2019-12-07 16:00:00 14.5 9 Nordeste 21 Este 0 921.3 -0.6 42
2019-12-07 15:00:00 16.3 7 Noroeste 14 Sur 0 921 -1.5 38
2019-12-07 14:00:00 15.9 0 Calma 13 Nordeste 0 921.3 -1.6 39
2019-12-07 13:00:00 15.8 0 Calma 13 Noroeste 0 921.9 -0.7 41
2019-12-07 12:00:00 14.3 0 Calma 7 Norte 0 922.5 0.5 45
2019-12-07 11:00:00 12.5 0 Calma 6 Noroeste 0 922.9 1.3 53
2019-12-07 10:00:00 10 0 Calma 9 Norte 0 922.6 1.2 64
2019-12-07 09:00:00 7.5 3 Noroeste 12 Oeste 0 922 0.7 78
2019-12-07 08:00:00 7.2 4 Oeste 12 Oeste 0 921.6 0.4 78
2019-12-07 07:00:00 7.3 5 Oeste 10 Oeste 0 921.4 -0.1 80
2019-12-07 06:00:00 7.2 0 Calma 5 Norte 0 921.3 -0.1 82
2019-12-07 05:00:00 7.6 0 Calma 10 Noroeste 0 921.2 -0.2 82
2019-12-07 04:00:00 7.2 2 Noroeste 9 Noroeste 0 921.5 -0.1 86
2019-12-07 03:00:00 6.7 0 Calma 9 Noroeste 0 921.4 -0.6 90
2019-12-07 02:00:00 6.3 0 Calma 5 Noroeste 0 921.4 -0.2 86
2019-12-07 01:00:00 6.1 0 Calma 8 Norte 0 921.6 0 86
2019-12-07 00:00:00 6.2 0 Calma 6 Nordeste 0 922 0.6 89
2019-12-06 23:00:00 7.3 0 Calma 8 Norte 0 921.6 0.5 85
2019-12-06 22:00:00 7.3 2 Noroeste 9 Noroeste 0 921.6 1 80
2019-12-06 21:00:00 7.9 0 Calma 10 Nordeste 0 921.4 1.6 90
2019-12-06 20:00:00 8.7 2 Nordeste 13 Este 0 921.1 1.9 87
2019-12-06 19:00:00 10 8 Nordeste 14 Este 0 920.6 1.6 78
2019-12-06 18:00:00 10.2 6 Este 15 Este 0 919.8 0.9 71
2019-12-06 17:00:00 11.8 6 Este 20 Este 0 919.2 -0.2 60
2019-12-06 16:00:00 13.4 10 Este 20 Este 0 919 -1.2 53
2019-12-06 15:00:00 13.5 7 Este 18 Este 0 918.9 -2.1 50
2019-12-06 14:00:00 13.8 7 Este 18 Nordeste 0 919.4 -1.9 51
2019-12-06 13:00:00 13.8 9 Nordeste 22 Nordeste 0 920.2 -1 53
2019-12-06 12:00:00 13.6 6 Nordeste 16 Nordeste 0 921 1 56
2019-12-06 11:00:00 10.4 4 Nordeste 12 Sudeste 0 921.3 1.9 67
2019-12-06 10:00:00 8.4 0 Calma 13 Nordeste 0 921.2 2.1 81
2019-12-06 09:00:00 6.9 4 Nordeste 14 Norte 0 920 1.2 89
2019-12-06 08:00:00 6.2 0 Calma 5 Nordeste 0 919.4 0.6 91
2019-12-06 07:00:00 6.9 0 Calma 4 Oeste 0 919.1 0.3 89
2019-12-06 06:00:00 7.1 0 Calma 6 Noroeste 0 918.8 0.3 88
2019-12-06 05:00:00 7.7 0 Calma 0 Calma 0 918.8 0.3 88
2019-12-06 04:00:00 7.5 0 Calma 4 Noroeste 0 918.8 0.2 89
2019-12-06 03:00:00 7.4 0 Calma 6 Noroeste 0 918.5 -0.2 89
2019-12-06 02:00:00 7.5 0 Calma 13 Nordeste 0 918.5 -0.2 90
2019-12-06 01:00:00 7.4 6 Nordeste 15 Nordeste 0 918.6 0.1 91
2019-12-06 00:00:00 7.7 5 Este 16 Sudeste 0 918.7 0.6 89
2019-12-05 23:00:00 8 3 Este 12 Sudeste 0 918.7 1.2 90
2019-12-05 22:00:00 8.5 0 Calma 5 Este 0 918.5 1.9 89
2019-12-05 21:00:00 8.6 0 Calma 7 Nordeste 0 918.1 2.1 88
2019-12-05 20:00:00 8.6 3 Nordeste 8 Norte 0 917.5 2.1 84
2019-12-05 19:00:00 9.3 4 Nordeste 17 Este 0 916.6 1.7 74
2019-12-05 18:00:00 10.2 6 Este 21 Sudeste 0 916 1.6 66
2019-12-05 17:00:00 10.4 7 Nordeste 21 Nordeste 0 915.4 1 64
2019-12-05 16:00:00 10.3 8 Nordeste 26 Este 0 914.9 0.2 66
2019-12-05 15:00:00 10.6 13 Nordeste 27 Nordeste 0 914.4 -0.8 64
2019-12-05 14:00:00 11.6 12 Este 28 Este 0 914.4 -0.6 60
2019-12-05 13:00:00 12.1 13 Nordeste 27 Este 0 914.7 0.5 60
2019-12-05 12:00:00 10.6 12 Nordeste 27 Este 0 915.2 1.5 69
2019-12-05 11:00:00 7.8 8 Este 15 Nordeste 0 915 2.2 68
2019-12-05 10:00:00 6.7 0 Calma 12 Noroeste 0 914.2 2.4 66
2019-12-05 09:00:00 4.9 7 Noroeste 12 Oeste 0 913.7 2.2 72
2019-12-05 08:00:00 4.4 7 Oeste 11 Norte 0 912.8 1.2 78
2019-12-05 07:00:00 5.6 3 Noroeste 10 Noroeste 0 911.8 0.7 72
2019-12-05 06:00:00 5.1 5 Noroeste 13 Oeste 0 911.5 0.6 80
2019-12-05 05:00:00 5.5 2 Noroeste 12 Noroeste 0 911.6 0.9 78
2019-12-05 04:00:00 5.8 6 Noroeste 14 Norte 0 911.1 0.6 80
2019-12-05 03:00:00 6 4 Noroeste 12 Noroeste 0 910.9 0.6 79
2019-12-05 02:00:00 6.3 5 Oeste 14 Oeste 0 910.7 0.7 75
2019-12-05 01:00:00 7.1 0 Calma 10 Noroeste 0 910.5 0.9 73
2019-12-05 00:00:00 6.8 3 Noroeste 14 Norte 0 910.3 1 74
2019-12-04 23:00:00 8.3 4 Norte 16 Noroeste 0 910 1.1 67
2019-12-04 22:00:00 8.3 4 Norte 18 Noroeste 0 909.6 1.3 71
2019-12-04 21:00:00 9.1 5 Noroeste 19 Norte 0 909.3 1.5 63
2019-12-04 20:00:00 9 3 Norte 22 Sudoeste 0 908.9 1.4 64
2019-12-04 19:00:00 9.3 6 Noroeste 21 Noroeste 0 908.3 1.6 65
2019-12-04 18:00:00 9.9 6 Noroeste 18 Norte 0 907.8 1.4 60
2019-12-04 17:00:00 11.4 4 Noroeste 21 Norte 0 907.5 0.9 54
2019-12-04 16:00:00 11.8 5 Noroeste 19 Norte 0 906.7 -0.6 51
2019-12-04 15:00:00 12.1 11 Noroeste 22 Noroeste 0 906.4 -1.1 53
2019-12-04 14:00:00 12.6 9 Noroeste 23 Noroeste 0 906.6 -1.5 55
2019-12-04 13:00:00 13.6 9 Noroeste 25 Norte 0 907.3 -0.7 50
2019-12-04 12:00:00 12.6 12 Noroeste 27 Noroeste 0 907.5 -0.4 54
2019-12-04 11:00:00 11.6 10 Noroeste 25 Noroeste 0 908.1 0.5 56
2019-12-04 10:00:00 10 4 Oeste 21 Noroeste 0 908 0.8 65
2019-12-04 09:00:00 7.1 11 Noroeste 26 Noroeste 0 907.9 1 75
2019-12-04 08:00:00 6.1 14 Noroeste 26 Noroeste 0 907.6 -0.1 82
2019-12-04 07:00:00 6.3 11 Noroeste 28 Norte 0 907.2 -1.1 81
2019-12-04 06:00:00 7.9 2 Norte 18 Sur 0 906.9 -2.3 74
2019-12-04 05:00:00 6.6 9 Noroeste 22 Noroeste 0 907.7 -1.9 86
2019-12-04 04:00:00 6.2 8 Noroeste 23 Noroeste 0 908.3 -1.8 89
2019-12-04 03:00:00 6.2 8 Noroeste 23 Noroeste 0 909.2 -1.5 88
2019-12-04 02:00:00 6.3 8 Noroeste 20 Noroeste 0.1 909.6 -1.4 89
2019-12-04 01:00:00 6.9 8 Noroeste 18 Noroeste 0.5 910.1 -0.7 90
2019-12-04 00:00:00 6.9 8 Noroeste 18 Noroeste 0.8 910.7 0.2 89
2019-12-03 23:00:00 7.3 6 Noroeste 17 Noroeste 0.3 911 0.8 85
2019-12-03 22:00:00 8.1 4 Noroeste 16 Norte 0 910.8 1.1 81
2019-12-03 21:00:00 8.4 4 Noroeste 17 Noroeste 0 910.5 1.3 78
2019-12-03 20:00:00 8.7 8 Noroeste 19 Noroeste 0 910.2 0.9 78
2019-12-03 19:00:00 9 4 Noroeste 19 Noroeste 0.1 909.7 1 70
2019-12-03 18:00:00 8.8 2 Noroeste 19 Noroeste 0 909.2 0.4 75
2019-12-03 17:00:00 8.6 5 Noroeste 19 Noroeste 0.5 909.3 -0.1 79
2019-12-03 16:00:00 10.5 0 Calma 11 Noroeste 0 908.7 -0.9 61
2019-12-03 15:00:00 9.9 2 Noroeste 13 Noroeste 0 908.8 -- 72
2019-12-03 14:00:00 9.5 0 Calma 18 Noroeste 0.1 909.4 -1.6 77
2019-12-03 13:00:00 8.6 3 Noroeste 23 Sudoeste 1.1 909.6 -1.3 82
2019-12-03 12:00:00 -- -- -- -- -- -- -- -- --
2019-12-03 11:00:00 9 2 Noroeste 12 Norte 0 911 -0.3 74
2019-12-03 10:00:00 8.5 0 Calma 15 Noroeste 0.1 910.9 0.2 78
2019-12-03 09:00:00 7.2 5 Noroeste 25 Noroeste 3.7 910.9 0.5 80
2019-12-03 08:00:00 8.3 0 Calma 12 Norte 2.1 911.3 0.6 86
2019-12-03 07:00:00 8.3 3 Noroeste 13 Norte 0.8 910.7 -0.2 91
2019-12-03 06:00:00 8.5 2 Noroeste 8 Norte 1.2 910.4 -0.9 91
2019-12-03 05:00:00 8.6 0 Calma 6 Oeste 1.4 910.7 -1.3 91
2019-12-03 04:00:00 8.5 0 Calma 6 Noroeste 0.4 910.9 -1.1 92
2019-12-03 03:00:00 8.5 0 Calma 8 Noroeste 1 911.3 -1 93
2019-12-03 02:00:00 8.6 0 Calma 2 Oeste 0.5 912 -0.7 94
2019-12-03 01:00:00 8.6 0 Calma 0 Calma 0.8 912 -0.7 94
2019-12-03 00:00:00 8.6 0 Calma 8 Noroeste 0.2 912.3 -0.1 94
2019-12-02 23:00:00 8.5 0 Calma 11 Este 0.7 912.7 0.6 94
2019-12-02 22:00:00 8.4 3 Nordeste 14 Este 1.5 912.7 1.3 94
2019-12-02 21:00:00 8.4 3 Este 8 Este 0.7 912.4 1.5 94
2019-12-02 20:00:00 8.6 0 Calma 11 Este 0.6 912.1 1.5 92
2019-12-02 19:00:00 9.5 5 Nordeste 21 Nordeste 0.1 911.4 0.9 81
2019-12-02 18:00:00 10.1 7 Nordeste 22 Nordeste 0 910.9 0.7 70
2019-12-02 17:00:00 10.8 8 Nordeste 32 Nordeste 0 910.6 0.3 67
2019-12-02 16:00:00 10.4 11 Nordeste 24 Nordeste 0 910.5 -0.4 71
2019-12-02 15:00:00 10.9 9 Este 31 Sudeste 0 910.2 -1.1 64
2019-12-02 14:00:00 12.9 12 Nordeste 29 Este 0 910.3 -1.1 55
2019-12-02 13:00:00 10.9 10 Nordeste 21 Nordeste 0 910.9 0.3 61
2019-12-02 12:00:00 10.2 9 Nordeste 23 Nordeste 0 911.3 1 70
2019-12-02 11:00:00 8.7 9 Este 19 Este 0 911.4 1.3 78
2019-12-02 10:00:00 9 0 Calma 8 Oeste 0 910.6 1.1 70
2019-12-02 09:00:00 6.1 0 Calma 7 Oeste 0.1 910.3 0.9 86
2019-12-02 08:00:00 6.1 0 Calma 12 Oeste 0 910.1 0.9 85
2019-12-02 07:00:00 5 4 Noroeste 9 Noroeste 0 909.5 0.2 87
2019-12-02 06:00:00 6.3 0 Calma 12 Oeste 0 909.4 -0.4 86
2019-12-02 05:00:00 6.2 0 Calma 12 Oeste 0 909.2 -0.6 86
2019-12-02 04:00:00 6.3 0 Calma 6 Oeste 0 909.3 -0.7 87
2019-12-02 03:00:00 7 0 Calma 7 Noroeste 0 909.8 -0.2 85
2019-12-02 02:00:00 7.9 2 Noroeste 9 Oeste 0 909.8 -0.2 81
2019-12-02 01:00:00 7.9 3 Noroeste 7 Noroeste 0 910 -0.5 73
2019-12-02 00:00:00 8.3 2 Noroeste 8 Noroeste 0 910 -0.4 67
2019-12-01 23:00:00 9.2 0 Calma 6 Noroeste 0 910 -0.5 61
2019-12-01 22:00:00 10 0 Calma 13 Oeste 0 910.5 0.4 56
2019-12-01 21:00:00 10.2 0 Calma 15 Sur 0 910.4 0.4 51
2019-12-01 20:00:00 10.6 2 Oeste 17 Norte 0 910.5 0.1 47
2019-12-01 19:00:00 10.8 2 Noroeste 16 Norte 0 910.1 -0.2 44
2019-12-01 18:00:00 12 3 Noroeste 14 Sur 0 910 -0.6 41
2019-12-01 17:00:00 13.9 6 Noroeste 15 Noroeste 0 910.4 -1 36
2019-12-01 16:00:00 16.1 6 Sur 18 Sur 0 910.3 -1.8 35
2019-12-01 15:00:00 16.9 6 Sur 16 Sur 0 910.6 -2.5 37
2019-12-01 14:00:00 16.6 6 Sur 16 Sudoeste 0 911.4 -2.3 38
2019-12-01 13:00:00 16.1 5 Sur 18 Norte 0 912.1 -1.8 37
2019-12-01 12:00:00 16.4 0 Calma 15 Sur 0 913.1 -0.8 39
2019-12-01 11:00:00 15.7 0 Calma 15 Noroeste 0 913.7 0.3 51
2019-12-01 10:00:00 13.4 5 Noroeste 17 Norte 0 913.9 0.4 64
2019-12-01 09:00:00 11.1 6 Noroeste 23 Noroeste 0 913.9 0.2 74
2019-12-01 08:00:00 10.7 4 Noroeste 18 Norte 0 913.4 -1 69
2019-12-01 07:00:00 10 4 Noroeste 15 Oeste 0 913.5 -1.5 65
2019-12-01 06:00:00 9.8 3 Noroeste 18 Norte 0 913.7 -1.5 69
2019-12-01 05:00:00 9.9 6 Sudoeste 29 Oeste 0 914.4 -1.3 75
2019-12-01 04:00:00 10.4 4 Noroeste 17 Noroeste 0 915 -1.3 69
2019-12-01 03:00:00 10.9 4 Noroeste 16 Norte 0 915.2 -1.7 68
2019-12-01 02:00:00 9.6 4 Noroeste 15 Noroeste 0 915.7 -1.6 71
2019-12-01 01:00:00 10.8 3 Norte 13 Noroeste 0 916.3 -1.2 71
2019-12-01 00:00:00 10.8 4 Noroeste 13 Noroeste 0 916.9 -1 69
2019-11-30 23:00:00 11.6 0 Calma 20 Sudoeste 0 917.3 -0.7 69
2019-11-30 22:00:00 12.8 5 Noroeste 20 Noroeste 0 917.5 -0.3 60
2019-11-30 21:00:00 14.3 6 Norte 24 Noroeste 0 917.9 0 53
2019-11-30 20:00:00 12.7 0 Calma 9 Noroeste 0 918 0.1 59
2019-11-30 19:00:00 13.6 2 Noroeste 9 Este 0 917.8 -0.6 56
2019-11-30 18:00:00 15.2 0 Calma 9 Este 0 917.9 -0.9 56
2019-11-30 17:00:00 16.7 4 Este 17 Sudeste 0 917.9 -1.7 49
2019-11-30 16:00:00 19.8 5 Este 14 Sudeste 0 918.4 -2.2 40
2019-11-30 15:00:00 19.4 6 Este 17 Este 0 918.8 -2.8 39
2019-11-30 14:00:00 20.4 5 Este 13 Este 0 919.6 -2.6 36
2019-11-30 13:00:00 20.5 2 Nordeste 13 Nordeste 0 920.6 -1.2 36
2019-11-30 12:00:00 18.8 5 Este 17 Nordeste 0 921.6 0 42
2019-11-30 11:00:00 17.5 0 Calma 5 Norte 0 922.2 0.6 42
2019-11-30 10:00:00 15.2 0 Calma 6 Noroeste 0 921.8 0.4 48
2019-11-30 09:00:00 11 2 Noroeste 9 Noroeste 0 921.6 0.4 56
2019-11-30 08:00:00 10.3 0 Calma 8 Oeste 0 921.6 0.4 58
2019-11-30 07:00:00 10.5 6 Oeste 10 Oeste 0 921.4 0.1 58
2019-11-30 06:00:00 11.3 2 Noroeste 6 Oeste 0 921.2 -0.4 56
2019-11-30 05:00:00 11.6 0 Calma 7 Oeste 0 921.2 -0.5 56
2019-11-30 04:00:00 11.7 0 Calma 6 Noroeste 0 921.3 -0.5 56
2019-11-30 03:00:00 10 0 Calma 7 Noroeste 0 921.6 -0.3 64
2019-11-30 02:00:00 10.5 0 Calma 12 Noroeste 0 921.7 -0.2 64
2019-11-30 01:00:00 10.7 4 Noroeste 13 Noroeste 0 921.8 -0.3 65
2019-11-30 00:00:00 10.7 2 Noroeste 12 Noroeste 0 921.9 -0.3 68
2019-11-29 23:00:00 10.9 8 Noroeste 13 Oeste 0 921.9 0.1 74
2019-11-29 22:00:00 12.9 0 Calma 14 Norte 0 922.1 0.6 58
2019-11-29 21:00:00 12.9 6 Noroeste 15 Noroeste 0 922.2 1.2 67
2019-11-29 20:00:00 13.4 0 Calma 10 Noroeste 0 921.8 1.6 64
2019-11-29 19:00:00 14.6 4 Norte 13 Norte 0 921.5 1.5 58
2019-11-29 18:00:00 15.9 5 Noroeste 14 Noroeste 0 921 1.2 52
2019-11-29 17:00:00 17.8 4 Norte 13 Sur 0 920.2 0 44
2019-11-29 16:00:00 21 2 Noroeste 19 Oeste 0 920 -0.4 33
2019-11-29 15:00:00 21.5 10 Noroeste 24 Norte 0 919.8 -1.4 31
2019-11-29 14:00:00 21.7 2 Norte 13 Sur 0 920.2 -1.2 31
2019-11-29 13:00:00 20.8 3 Norte 17 Noroeste 0 920.4 -0.7 36
2019-11-29 12:00:00 17.9 4 Noroeste 20 Noroeste 0 921.2 0.3 48
2019-11-29 11:00:00 15.6 8 Norte 24 Norte 0 921.4 1.1 55
2019-11-29 10:00:00 12.9 8 Norte 22 Norte 0 921.1 1.3 65
2019-11-29 09:00:00 10.3 8 Noroeste 24 Noroeste 0 920.9 1.6 73
2019-11-29 08:00:00 8.8 12 Noroeste 27 Noroeste 0 920.3 1.2 78
2019-11-29 07:00:00 8.8 14 Noroeste 35 Noroeste 0 919.8 0.3 77
2019-11-29 06:00:00 8.8 11 Noroeste 29 Noroeste 0 919.3 -0.4 76
2019-11-29 05:00:00 8.8 12 Noroeste 28 Noroeste 0 919.1 -0.5 75
2019-11-29 04:00:00 8.9 5 Noroeste 19 Noroeste 0 919.5 -0.5 72
2019-11-29 03:00:00 8.9 8 Noroeste 23 Nordeste 0 919.7 -0.2 75
2019-11-29 02:00:00 9.2 10 Noroeste 24 Norte 0 919.6 -0.1 78
2019-11-29 01:00:00 9.1 8 Noroeste 22 Noroeste 0 920 0.8 78
2019-11-29 00:00:00 9.4 8 Noroeste 25 Noroeste 0 919.9 0.7 81
2019-11-28 23:00:00 9.9 4 Noroeste 22 Noroeste 0 919.7 1.7 80
2019-11-28 22:00:00 10.1 6 Noroeste 18 Noroeste 0 919.2 1.2 79
2019-11-28 21:00:00 11.8 4 Sudoeste 20 Sur 0 919.2 1.8 69
2019-11-28 20:00:00 13 3 Norte 15 Este 0 918 0.7 61
2019-11-28 19:00:00 13.6 6 Norte 17 Este 0 918 1 56
2019-11-28 18:00:00 14.7 4 Norte 14 Noroeste 0 917.4 0.4 52
2019-11-28 17:00:00 16.9 6 Noroeste 14 Sur 0 917.3 -0.3 46
2019-11-28 16:00:00 19.2 3 Sudoeste 17 Sur 0 917 -1.2 39
2019-11-28 15:00:00 19.8 5 Norte 16 Noroeste 0 917 -2.2 37
2019-11-28 14:00:00 20.2 4 Norte 17 Norte 0 917.6 -1.7 38
2019-11-28 13:00:00 18.6 4 Norte 14 Noroeste 0 918.2 -1 41
2019-11-28 12:00:00 16.9 2 Noroeste 18 Noroeste 0 919.2 0.6 45
2019-11-28 11:00:00 15.1 4 Norte 18 Noroeste 0 919.3 1.4 53
2019-11-28 10:00:00 12.9 6 Noroeste 16 Norte 0 919.2 2.3 60
2019-11-28 09:00:00 9.5 7 Noroeste 19 Noroeste 0 918.6 2.1 67
2019-11-28 08:00:00 8.3 6 Norte 17 Norte 0 917.9 1.6 70
2019-11-28 07:00:00 8.8 3 Noroeste 22 Sur 0 916.9 0.3 67
2019-11-28 06:00:00 9.3 7 Noroeste 23 Sur 0 916.5 -0.2 64
2019-11-28 05:00:00 10.9 9 Sudoeste 26 Oeste 0 916.3 -0.5 60
2019-11-28 04:00:00 10 8 Sudoeste 25 Sur 0 916.6 -0.6 62
2019-11-28 03:00:00 10.5 7 Sudoeste 23 Sur 0 916.7 -0.4 61
2019-11-28 02:00:00 11 0 Calma 33 Sudoeste 0 916.8 -0.7 60
2019-11-28 01:00:00 10.9 3 Sudoeste 26 Noroeste 0 917.2 0.5 61
2019-11-28 00:00:00 10.9 4 Sudoeste 22 Sur 0 917.1 0.5 61
2019-11-27 23:00:00 11 5 Sudoeste 24 Noroeste 0 917.5 1.7 61
2019-11-27 22:00:00 11.1 10 Sudoeste 30 Sudoeste 0 916.7 1 61
2019-11-27 21:00:00 11 5 Oeste 26 Noroeste 0 916.6 1.3 61
2019-11-27 20:00:00 11.6 7 Noroeste 23 Norte 0 915.8 1.5 60
2019-11-27 19:00:00 12.6 11 Noroeste 25 Noroeste 0 915.7 1.8 60
2019-11-27 18:00:00 13.6 13 Noroeste 27 Noroeste 0 915.3 1.4 55
2019-11-27 17:00:00 15.1 13 Noroeste 27 Norte 0 914.3 0.2 49
2019-11-27 16:00:00 17.1 9 Sudoeste 31 Sur 0 913.9 -1 43
2019-11-27 15:00:00 18.1 13 Sur 26 Sur 0 913.9 -1.8 42
2019-11-27 14:00:00 18.6 5 Noroeste 24 Sur 0 914.1 -2 42
2019-11-27 06:00:00 13.9 8 Norte 28 Noroeste 0 913.3 -0.1 74
2019-11-27 05:00:00 13.5 7 Noroeste 16 Norte 0 913.3 -0.1 75
2019-11-27 04:00:00 13.5 0 Calma 29 Sur 0 913 -0.6 74
2019-11-27 03:00:00 13 6 Noroeste 24 Noroeste 0 913.4 -0.9 67
2019-11-27 02:00:00 14.1 6 Noroeste 18 Oeste 0 913.4 -1.4 58
2019-11-27 01:00:00 14.6 6 Noroeste 19 Noroeste 0 913.6 -1.3 50
2019-11-27 00:00:00 12.5 6 Norte 17 Noroeste 0 914.3 -0.9 58
2019-11-26 23:00:00 12.8 4 Noroeste 19 Norte 0 914.8 -0.3 61
2019-11-26 22:00:00 12.7 8 Noroeste 24 Noroeste 0 914.9 -0.2 65
2019-11-26 21:00:00 13.3 5 Noroeste 26 Noroeste 0 915.2 0.8 68
2019-11-26 20:00:00 14.2 8 Noroeste 19 Norte 0 915.1 1.2 67
2019-11-26 19:00:00 15 10 Noroeste 22 Noroeste 0 915.1 1 66
2019-11-26 18:00:00 15.8 6 Noroeste 21 Norte 0 914.4 0.1 61
2019-11-26 17:00:00 17.1 6 Norte 19 Norte 0 913.9 -1.2 53
2019-11-26 16:00:00 17.7 3 Oeste 26 Noroeste 0 914.1 -2.1 49
2019-11-26 15:00:00 18.4 4 Oeste 20 Sur 0 914.3 -2 50
2019-11-26 14:00:00 17.5 8 Noroeste 22 Noroeste 0 915.1 -1.9 50
2019-11-26 13:00:00 17.1 6 Noroeste 23 Noroeste 0 916.2 -0.9 49
2019-11-26 12:00:00 18.6 8 Noroeste 23 Noroeste 0 916.3 -0.5 41
2019-11-26 11:00:00 16.4 9 Noroeste 21 Noroeste 0 917 0.6 49
2019-11-26 10:00:00 12.7 10 Noroeste 20 Noroeste 0 917.1 0.8 71
2019-11-26 09:00:00 10.9 8 Noroeste 17 Noroeste 0 916.8 0.3 78
2019-11-26 08:00:00 9.7 3 Noroeste 19 Noroeste 0 916.4 -0.6 79
2019-11-26 07:00:00 10.9 8 Norte 23 Norte 0 916.3 -1.1 73
2019-11-26 06:00:00 11.2 5 Norte 18 Norte 0 916.5 -0.8 73
2019-11-26 05:00:00 11.6 4 Noroeste 21 Noroeste 0 917 -0.2 76
2019-11-26 04:00:00 11.5 5 Norte 15 Noroeste 0 917.4 0.2 78
2019-11-26 03:00:00 12.3 4 Noroeste 16 Noroeste 0 917.3 -0.5 75
2019-11-26 02:00:00 12.9 6 Noroeste 16 Noroeste 0 917.2 -0.3 75
2019-11-26 01:00:00 13.5 6 Noroeste 20 Noroeste 0 917.2 -0.7 71
2019-11-26 00:00:00 13.4 12 Noroeste 25 Norte 0 917.8 -0.2 70
2019-11-25 23:00:00 13.3 11 Noroeste 22 Norte 0 917.5 -0.3 67
2019-11-25 22:00:00 13.8 9 Noroeste 19 Noroeste 0 917.9 0.3 63
2019-11-25 21:00:00 14 8 Norte 24 Noroeste 0 918 0.7 64
2019-11-25 20:00:00 14.1 10 Norte 26 Noroeste 0 917.8 1.1 64
2019-11-25 19:00:00 14.4 12 Noroeste 23 Noroeste 0 917.6 1.2 67
2019-11-25 18:00:00 14.5 4 Noroeste 22 Noroeste 0 917.3 1 70
2019-11-25 17:00:00 15.2 9 Noroeste 26 Noroeste 0 916.7 -0.1 67
2019-11-25 16:00:00 16.6 12 Noroeste 30 Noroeste 0 916.4 -1 61
2019-11-25 15:00:00 17.9 13 Noroeste 29 Noroeste 0 916.3 -1.2 58
2019-11-25 14:00:00 15.9 12 Noroeste 49 Norte 0 916.8 -0.6 65
2019-11-25 13:00:00 14.8 8 Norte 22 Norte 0 917.4 -0.2 70
2019-11-25 12:00:00 14.4 8 Noroeste 24 Noroeste 0 917.5 0.3 66
2019-11-25 11:00:00 14 10 Noroeste 24 Noroeste 0 917.4 0 64
2019-11-25 10:00:00 12.9 9 Noroeste 24 Norte 0 917.6 0.6 67
2019-11-25 09:00:00 11.2 9 Noroeste 24 Noroeste 0 917.2 0.5 66
2019-11-25 08:00:00 10.5 8 Noroeste 21 Noroeste 0 917.4 0.4 67
2019-11-25 07:00:00 10.5 12 Noroeste 26 Noroeste 0 917 0.3 64
2019-11-25 06:00:00 8 12 Noroeste 27 Noroeste 0 916.7 0 70
2019-11-25 05:00:00 9.4 13 Noroeste 33 Noroeste 0 917 -0.4 63
2019-11-25 04:00:00 8.5 13 Noroeste 30 Norte 0 916.7 -1.1 64
2019-11-25 03:00:00 7.7 14 Noroeste 33 Noroeste 0 916.7 -1.1 67
2019-11-25 02:00:00 7.6 5 Noroeste 26 Norte 0 917.4 -0.7 67
2019-11-25 01:00:00 8.1 10 Noroeste 25 Norte 0 917.8 0.3 66
2019-11-25 00:00:00 7.7 12 Noroeste 32 Noroeste 0 917.8 -0.1 66
2019-11-24 23:00:00 8.3 13 Noroeste 35 Norte 0 918.1 1.1 65
2019-11-24 22:00:00 7.9 8 Noroeste 22 Noroeste 0 917.5 1.5 64
2019-11-24 21:00:00 8.4 11 Noroeste 27 Noroeste 0 917.9 2.5 59
2019-11-24 20:00:00 9.6 8 Noroeste 22 Norte 0 917 1.9 47
2019-11-24 19:00:00 10.2 7 Norte 23 Norte 0 916 1.2 45
2019-11-24 18:00:00 10.7 9 Noroeste 18 Norte 0 915.4 0.9 43
2019-11-24 17:00:00 12 9 Noroeste 21 Norte 0 915.1 -0.1 38
2019-11-24 16:00:00 13.7 10 Noroeste 25 Norte 0 914.8 -0.7 35
2019-11-24 15:00:00 13 10 Noroeste 24 Noroeste 0 914.5 -1.8 35
2019-11-24 14:00:00 12.6 9 Noroeste 21 Norte 0 915.2 -1.7 38
2019-11-24 13:00:00 11.5 9 Noroeste 21 Noroeste 0 915.5 -1.2 41
2019-11-24 12:00:00 8.6 9 Noroeste 23 Noroeste 0 916.3 0.4 49
2019-11-24 11:00:00 7.4 9 Noroeste 24 Norte 0 916.9 1.5 56
2019-11-24 10:00:00 8.2 8 Noroeste 20 Noroeste 0 916.7 2.4 53
2019-11-24 09:00:00 8.9 9 Noroeste 23 Noroeste 0 915.9 1.8 50
2019-11-24 08:00:00 6.4 8 Noroeste 22 Noroeste 0 915.4 1.2 53
2019-11-24 07:00:00 5.7 9 Noroeste 19 Noroeste 0 914.3 0.1 60
2019-11-24 06:00:00 5.5 5 Norte 17 Sudoeste 0 914.1 0.1 63
2019-11-24 05:00:00 5.3 7 Noroeste 14 Noroeste 0 914.2 0.3 67
2019-11-24 04:00:00 5.5 6 Noroeste 17 Noroeste 0 914.2 0 64
2019-11-24 03:00:00 7.4 4 Norte 18 Noroeste 0 914 0.1 54
2019-11-24 02:00:00 7.4 5 Noroeste 19 Noroeste 0 913.9 1.1 55
2019-11-24 01:00:00 7.7 4 Noroeste 23 Norte 0 914.2 2.8 53
2019-11-24 00:00:00 8.1 5 Noroeste 19 Noroeste 0 913.9 2.9 54
2019-11-23 23:00:00 7.5 8 Noroeste 31 Noroeste 0 912.8 2.2 59
2019-11-23 22:00:00 7.8 17 Noroeste 34 Noroeste 0 911.4 2.2 59
2019-11-23 21:00:00 8 18 Noroeste 36 Noroeste 0 911 2.8 59
2019-11-23 20:00:00 8.4 12 Noroeste 25 Norte 0 910.6 2.9 56
2019-11-23 19:00:00 8.6 11 Noroeste 22 Noroeste 0 909.2 2.3 51
2019-11-23 18:00:00 9.3 10 Noroeste 28 Noroeste 0 908.2 2.7 48
2019-11-23 17:00:00 10 12 Noroeste 32 Noroeste 0 907.7 1.8 47
2019-11-23 16:00:00 11.6 16 Noroeste 35 Noroeste 0 906.9 1.7 42
2019-11-23 15:00:00 12 18 Noroeste 36 Noroeste 0 905.5 -0.2 42
2019-11-23 14:00:00 12.3 18 Noroeste 44 Noroeste 0 905.9 0.9 43
2019-11-23 13:00:00 11.6 20 Noroeste 39 Noroeste 0 905.2 1.1 44
2019-11-23 12:00:00 11 18 Noroeste 39 Norte 0 905.7 2.3 47
2019-11-23 11:00:00 11 19 Noroeste 36 Noroeste 0 905 2.5 51
2019-11-23 10:00:00 9.7 16 Noroeste 37 Noroeste 0 904.1 2.6 62
2019-11-23 09:00:00 8 14 Noroeste 31 Noroeste 0.2 903.4 3.2 74
2019-11-23 08:00:00 7 12 Noroeste 31 Noroeste 0.9 902.5 2.3 85
2019-11-23 07:00:00 7.9 13 Noroeste 36 Noroeste 0.6 901.5 1.1 78
2019-11-23 06:00:00 8.6 17 Noroeste 36 Noroeste 0 900.2 -0.2 64
2019-11-23 05:00:00 9.4 17 Noroeste 42 Noroeste 0.1 900.2 -0.4 57
2019-11-23 04:00:00 10 10 Noroeste 28 Norte 0 900.4 -0.1 57
2019-11-23 03:00:00 10.2 10 Noroeste 32 Noroeste 0 900.4 -0.3 54
2019-11-23 02:00:00 10 11 Noroeste 34 Noroeste 0 900.6 -0.3 55
2019-11-23 01:00:00 10.3 17 Noroeste 35 Noroeste 0 900.5 -0.1 53
2019-11-23 00:00:00 10.5 16 Noroeste 35 Noroeste 0 900.7 -0.3 54
2019-11-22 23:00:00 11.4 13 Noroeste 30 Noroeste 0 900.9 0.3 69
2019-11-22 22:00:00 11.6 8 Noroeste 24 Norte 0.6 900.6 0 82
2019-11-22 21:00:00 10.8 0 Calma 8 Noroeste 3.2 901 0.2 95
2019-11-22 20:00:00 11 0 Calma 12 Este 1.1 900.6 -0.6 94
2019-11-22 19:00:00 11.2 3 Nordeste 13 Este 0.4 900.6 -0.9 91
2019-11-22 18:00:00 11.5 2 Nordeste 23 Sudeste 0.1 900.8 -1.7 87
2019-11-22 17:00:00 11.6 7 Nordeste 26 Nordeste 0 901.2 -2.1 86
2019-11-22 16:00:00 12.1 10 Nordeste 35 Nordeste 0 901.5 -3.3 84
2019-11-22 15:00:00 12.9 6 Nordeste 21 Nordeste 0 902.5 -3.6 79
2019-11-22 14:00:00 12.3 10 Nordeste 24 Nordeste 0 903.3 -3.6 86
2019-11-22 13:00:00 10.3 6 Nordeste 24 Nordeste 0 904.8 -2.9 95
2019-11-22 12:00:00 10.2 2 Nordeste 10 Nordeste 0 906.1 -1.5 88
2019-11-22 11:00:00 9.8 2 Norte 9 Norte 0 906.9 -0.5 91
2019-11-22 10:00:00 8.4 0 Calma 5 Noroeste 0.2 907.7 0.6 93
2019-11-22 09:00:00 8.3 0 Calma 9 Noroeste 0 907.6 -0.1 91
2019-11-22 08:00:00 7 3 Noroeste 9 Noroeste 0 907.4 -0.5 92
2019-11-22 07:00:00 7.3 0 Calma 6 Noroeste 0 907.1 -1.2 92
2019-11-22 06:00:00 7.3 0 Calma 7 Noroeste 0 907.7 -0.8 90
2019-11-22 05:00:00 7.3 0 Calma 5 Oeste 0 907.9 -0.7 91
2019-11-22 04:00:00 8.4 0 Calma 8 Oeste 0 908.3 -0.8 92
2019-11-22 03:00:00 9.1 0 Calma 5 Oeste 0 908.5 -1 91
2019-11-22 02:00:00 8.8 0 Calma 4 Noroeste 0 908.6 -0.7 92
2019-11-22 01:00:00 9.2 0 Calma 7 Oeste 0 909.1 -0.7 89
2019-11-22 00:00:00 9.4 0 Calma 6 Norte 0 909.5 -0.2 90
2019-11-21 23:00:00 9.6 2 Noroeste 10 Oeste 0 909.3 -0.2 90
2019-11-21 22:00:00 10.1 0 Calma 6 Oeste 0 909.8 0.7 89
2019-11-21 21:00:00 10.2 0 Calma 13 Nordeste 0 909.7 0.8 89
2019-11-21 20:00:00 10.3 5 Nordeste 13 Norte 0 909.5 0.3 86
2019-11-21 19:00:00 11 0 Calma 9 Este 0 909.1 0 71
2019-11-21 18:00:00 12 2 Nordeste 8 Nordeste 0 908.9 -0.6 64
2019-11-21 17:00:00 13.1 0 Calma 4 Noroeste 0 909.2 -0.6 58
2019-11-21 16:00:00 13.3 0 Calma 9 Noroeste 0 909.1 -1.2 58
2019-11-21 15:00:00 13.7 3 Norte 10 Norte 0 909.5 -1.4 56
2019-11-21 14:00:00 13.6 0 Calma 12 Noroeste 0 909.8 -1.6 57
2019-11-21 13:00:00 13.8 2 Norte 12 Noroeste 0 910.3 -1 53
2019-11-21 12:00:00 14.6 0 Calma 10 Norte 0 910.9 -0.1 55
2019-11-21 11:00:00 11.9 0 Calma 7 Norte 0 911.4 0.8 61
2019-11-21 10:00:00 11.3 0 Calma 9 Noroeste 0 911.3 1.1 63
2019-11-21 09:00:00 8.1 0 Calma 8 Noroeste 0 911 0.9 72
2019-11-21 08:00:00 -- -- -- -- -- -- -- -- --
2019-11-21 07:00:00 -- -- -- -- -- -- -- -- --
2019-11-21 06:00:00 -- -- -- -- -- -- -- -- --
2019-11-21 05:00:00 -- -- -- -- -- -- -- -- --
2019-11-21 04:00:00 -- -- -- -- -- -- -- -- --
2019-11-21 03:00:00 -- -- -- -- -- -- -- -- --
2019-11-21 02:00:00 -- -- -- -- -- -- -- -- --
2019-11-21 01:00:00 -- -- -- -- -- -- -- -- --
2019-11-21 00:00:00 -- -- -- -- -- -- -- -- --
2019-11-20 23:00:00 -- -- -- -- -- -- -- -- --
2019-11-20 22:00:00 -- -- -- -- -- -- -- -- --
2019-11-20 21:00:00 -- -- -- -- -- -- -- -- --
2019-11-20 20:00:00 -- -- -- -- -- -- -- -- --
2019-11-20 19:00:00 9.5 0 Calma 4 Este 0 910.1 0.1 60
2019-11-20 18:00:00 10.5 0 Calma 8 Norte 0 909.8 -0.3 49
2019-11-20 17:00:00 10.6 0 Calma 10 Este 0 910 -0.5 63
2019-11-20 16:00:00 11.6 0 Calma 7 Noroeste 0 910 -1 49
2019-11-20 15:00:00 11.6 5 Nordeste 10 Este 0 910.1 -1.7 49
2019-11-20 14:00:00 11.9 4 Nordeste 14 Este 0 910.5 -1.8 45
2019-11-20 13:00:00 13.4 3 Nordeste 12 Este 0 911 -1.6 41
2019-11-20 12:00:00 12.3 4 Nordeste 14 Este 0 911.8 -0.7 41
2019-11-20 11:00:00 9.9 2 Nordeste 7 Norte 0 912.3 -0.2 49
2019-11-20 10:00:00 9.2 0 Calma 4 Noroeste 0 912.6 0.2 57
2019-11-20 09:00:00 6.4 2 Noroeste 9 Oeste 0 912.5 -0.3 64
2019-11-20 08:00:00 4.3 2 Oeste 9 Oeste 0 912.5 -0.5 71
2019-11-20 07:00:00 4.5 0 Calma 13 Noroeste 0 912.4 -0.8 69
2019-11-20 06:00:00 5 0 Calma 8 Noroeste 0 912.8 -0.8 67
2019-11-20 05:00:00 4.9 4 Oeste 9 Oeste 0 913 -0.7 70
2019-11-20 04:00:00 4.1 6 Oeste 13 Oeste 0 913.2 -1.3 74
2019-11-20 03:00:00 5.8 0 Calma 9 Oeste 0 913.6 -1.2 68
2019-11-20 02:00:00 6.4 3 Oeste 11 Noroeste 0 913.7 -1.5 67
2019-11-20 01:00:00 6.5 3 Noroeste 9 Noroeste 0 914.5 -0.7 68
2019-11-20 00:00:00 6.6 3 Norte 12 Norte 0 914.8 -0.4 65
2019-11-19 23:00:00 6.9 4 Noroeste 12 Noroeste 0 915.2 -0.1 65
2019-11-19 22:00:00 6.8 0 Calma 9 Oeste 0 915.2 0.1 70
2019-11-19 21:00:00 7.4 2 Noroeste 10 Oeste 0 915.2 0.6 60
2019-11-19 20:00:00 7.2 3 Noroeste 10 Noroeste 0 915.3 0.9 60
2019-11-19 19:00:00 7.6 0 Calma 6 Nordeste 0 915.1 0.5 64
2019-11-19 18:00:00 9.5 0 Calma 12 Norte 0 914.6 -0.1 45
2019-11-19 17:00:00 10.9 5 Noroeste 14 Noroeste 0 914.4 -0.9 40
2019-11-19 16:00:00 12.9 6 Noroeste 17 Norte 0 914.6 -1.3 35
2019-11-19 15:00:00 12.5 8 Noroeste 17 Norte 0 914.7 -2.4 36
2019-11-19 14:00:00 12.7 3 Norte 15 Norte 0 915.3 -2.3 37
2019-11-19 13:00:00 13.1 6 Norte 20 Noroeste 0 915.9 -1.8 35
2019-11-19 12:00:00 12.3 3 Norte 15 Norte 0 917.1 -0.6 41
2019-11-19 11:00:00 9.9 4 Norte 12 Noroeste 0 917.6 0.1 53
2019-11-19 10:00:00 7.8 6 Noroeste 14 Noroeste 0 917.7 1 58
2019-11-19 09:00:00 5.3 6 Noroeste 13 Noroeste 0 917.7 1.1 64
2019-11-19 08:00:00 4 4 Noroeste 13 Noroeste 0 917.5 1 68
2019-11-19 07:00:00 3.6 4 Noroeste 15 Oeste 0 916.7 -0.1 70
2019-11-19 06:00:00 4 2 Noroeste 13 Noroeste 0 916.6 -0.1 67
2019-11-19 05:00:00 4 7 Noroeste 14 Norte 0 916.5 -0.2 67
2019-11-19 04:00:00 3.8 5 Noroeste 15 Oeste 0 916.8 -0.1 65
2019-11-19 03:00:00 5.3 3 Noroeste 16 Norte 0 916.7 -0.3 60
2019-11-19 02:00:00 5.5 4 Noroeste 19 Noroeste 0 916.7 -0.4 57
2019-11-19 01:00:00 5.2 6 Noroeste 18 Nordeste 0 916.9 0.2 58
2019-11-19 00:00:00 6 8 Noroeste 17 Oeste 0 917 0.5 53
2019-11-18 23:00:00 6.2 10 Noroeste 18 Norte 0 917.1 0.7 55
2019-11-18 22:00:00 6.7 8 Noroeste 22 Noroeste 0 916.7 1 54
2019-11-18 21:00:00 7.5 5 Norte 19 Noroeste 0 916.5 1.8 53
2019-11-18 20:00:00 7.7 6 Norte 24 Norte 0 916.4 1.9 53
2019-11-18 19:00:00 7.2 3 Norte 18 Noroeste 0 915.7 2 57
2019-11-18 18:00:00 7.8 5 Norte 22 Noroeste 0 914.7 1.4 56
2019-11-18 17:00:00 8.8 9 Noroeste 26 Noroeste 0 914.5 1.5 50
2019-11-18 16:00:00 10.9 13 Noroeste 27 Noroeste 0 913.7 0.5 47
2019-11-18 15:00:00 11.7 10 Noroeste 25 Norte 0 913.3 0.3 46
2019-11-18 14:00:00 11.7 13 Noroeste 26 Noroeste 0 913 1.1 49
2019-11-18 13:00:00 9.4 10 Noroeste 31 Norte 0 913.2 2 53
2019-11-18 12:00:00 10.8 12 Noroeste 33 Norte 0 913 2.7 53
2019-11-18 11:00:00 9.8 12 Noroeste 33 Noroeste 0 911.9 2 58
2019-11-18 10:00:00 8.6 16 Noroeste 31 Norte 0 911.2 0.9 68
2019-11-18 09:00:00 7.5 10 Noroeste 28 Norte 0 910.3 -0.3 76
2019-11-18 08:00:00 4.6 7 Noroeste 22 Norte 0 909.9 1.9 90
2019-11-18 07:00:00 4.9 6 Noroeste 27 Noroeste 2.3 910.3 1.6 89
2019-11-18 06:00:00 6.2 8 Norte 28 Noroeste 2.8 910.6 0.6 86
2019-11-18 05:00:00 9 7 Norte 20 Noroeste 0.1 908 -1.6 86
2019-11-18 04:00:00 8.6 6 Noroeste 17 Noroeste 1.5 908.7 -1.8 92
2019-11-18 03:00:00 9.1 8 Noroeste 27 Norte 1.8 910 -0.7 90
2019-11-18 02:00:00 10.5 6 Noroeste 21 Norte 0 909.6 -2 75
2019-11-18 01:00:00 10.7 7 Noroeste 20 Norte 0 910.5 -1.9 72
2019-11-18 00:00:00 10.5 10 Noroeste 23 Noroeste 0 910.7 -2.1 73
2019-11-17 23:00:00 9.9 8 Noroeste 22 Noroeste 0 911.6 -1.6 74
2019-11-17 22:00:00 10 6 Noroeste 18 Noroeste 0 912.4 -1.4 76
2019-11-17 21:00:00 9.9 7 Noroeste 21 Noroeste 0 912.8 -1.6 76
2019-11-17 20:00:00 9.8 7 Noroeste 15 Norte 0 913.2 -1.1 75
2019-11-17 19:00:00 10 0 Calma 15 Norte 0 913.8 -0.6 73
2019-11-17 18:00:00 10 6 Noroeste 18 Noroeste 0 914.4 -0.5 75
2019-11-17 17:00:00 10.5 12 Noroeste 27 Noroeste 0 914.3 -1.3 75
2019-11-17 16:00:00 10.2 10 Noroeste 22 Noroeste 0.1 914.4 -1.5 79
2019-11-17 15:00:00 9.5 5 Noroeste 17 Norte 0.3 914.9 -1.5 82
2019-11-17 14:00:00 10.1 5 Norte 22 Noroeste 0 915.6 -0.7 70
2019-11-17 13:00:00 12.1 6 Noroeste 20 Norte 0 915.9 -0.9 46
2019-11-17 12:00:00 9.8 10 Noroeste 28 Noroeste 0 916.4 -0.2 45
2019-11-17 11:00:00 9.3 11 Norte 30 Norte 0 916.3 -0.2 42
2019-11-17 10:00:00 7.6 12 Noroeste 27 Noroeste 0 916.8 0.3 42
2019-11-17 09:00:00 7.5 7 Noroeste 18 Norte 0 916.6 0.6 42
2019-11-17 08:00:00 6 5 Noroeste 26 Noroeste 0 916.5 0.2 46
2019-11-17 07:00:00 5.4 5 Noroeste 17 Noroeste 0 916.5 0.5 49
2019-11-17 06:00:00 4.5 8 Norte 21 Noroeste 0 916 -0.6 55
2019-11-17 05:00:00 4.6 8 Noroeste 21 Noroeste 0 916.3 -0.7 54
2019-11-17 04:00:00 4.3 5 Norte 14 Norte 0 916 -1 55
2019-11-17 03:00:00 3.7 0 Calma 11 Norte 0 916.6 -0.4 56
2019-11-17 02:00:00 2.4 4 Noroeste 19 Norte 0 917 -0.5 57
2019-11-17 01:00:00 4.5 10 Noroeste 23 Norte 0 917 -0.7 54
2019-11-17 00:00:00 4.7 5 Norte 22 Norte 0 917 0.2 55
2019-11-16 23:00:00 4.7 10 Noroeste 21 Noroeste 0 917.5 1.3 56
2019-11-16 22:00:00 5.3 6 Noroeste 18 Norte 0 917.7 2.1 54
2019-11-16 21:00:00 6.3 6 Norte 25 Norte 0 916.8 2.3 53
2019-11-16 20:00:00 6.4 8 Norte 28 Norte 0 916.2 2.2 53
2019-11-16 19:00:00 7 7 Noroeste 23 Noroeste 0 915.6 2.4 52
2019-11-16 18:00:00 8.3 11 Noroeste 22 Noroeste 0 914.5 1.2 47
2019-11-16 17:00:00 10 9 Noroeste 24 Norte 0 914 1 39
2019-11-16 16:00:00 11.8 8 Norte 22 Norte 0 913.2 0 37
2019-11-16 15:00:00 11.7 9 Noroeste 26 Norte 0 913.3 -0.1 38
2019-11-16 14:00:00 12 8 Norte 24 Noroeste 0 913 -0.5 37
2019-11-16 13:00:00 11.6 10 Noroeste 22 Norte 0 913.2 0.1 41
2019-11-16 12:00:00 10.1 9 Noroeste 23 Norte 0 913.4 1.1 45
2019-11-16 11:00:00 8.9 7 Norte 23 Norte 0 913.5 2 48
2019-11-16 10:00:00 7.6 8 Norte 21 Noroeste 0 913.1 2.7 53
2019-11-16 09:00:00 4.8 9 Noroeste 18 Noroeste 0 912.3 2.5 64
2019-11-16 08:00:00 2.7 4 Noroeste 15 Sur 0 911.5 2.2 69
2019-11-16 07:00:00 2.8 4 Sur 10 Oeste 0 910.4 1.7 70
2019-11-16 06:00:00 3.6 6 Noroeste 16 Noroeste 0 909.8 1.1 69
2019-11-16 05:00:00 4.3 7 Noroeste 24 Norte 0 909.3 0.8 67
2019-11-16 04:00:00 4.6 9 Noroeste 22 Noroeste 0 908.7 0.2 66
2019-11-16 03:00:00 4.9 6 Noroeste 19 Norte 0 908.7 0.1 64
2019-11-16 02:00:00 4.8 6 Noroeste 16 Norte 0 908.5 0 66
2019-11-16 01:00:00 4.5 8 Noroeste 17 Noroeste 0 908.5 0.5 66
2019-11-16 00:00:00 4.8 6 Noroeste 18 Norte 0 908.6 1.3 64
2019-11-15 23:00:00 4.7 9 Noroeste 19 Norte 0 908.5 1.8 64
2019-11-15 22:00:00 4.9 9 Noroeste 19 Noroeste 0 908 1.5 62
2019-11-15 21:00:00 5.1 9 Noroeste 19 Noroeste 0 907.3 1.4 58
2019-11-15 20:00:00 5 5 Norte 20 Norte 0 906.7 1.3 55
2019-11-15 19:00:00 5.8 7 Noroeste 18 Noroeste 0 906.5 1.2 49
2019-11-15 18:00:00 6.4 9 Noroeste 20 Noroeste 0 905.9 0.6 46
2019-11-15 17:00:00 8.2 10 Noroeste 20 Noroeste 0 905.4 -0.3 43
2019-11-15 16:00:00 8.7 7 Noroeste 21 Noroeste 0 905.3 -1 43
2019-11-15 15:00:00 10.5 7 Noroeste 18 Noroeste 0 905.3 -1 42
2019-11-15 14:00:00 9.4 6 Noroeste 20 Noroeste 0 905.7 -0.8 46
2019-11-15 13:00:00 9.7 9 Norte 21 Noroeste 0 906.3 -0.2 48
2019-11-15 12:00:00 9.3 11 Noroeste 25 Noroeste 0 906.3 0.6 47
2019-11-15 11:00:00 8.4 11 Noroeste 24 Noroeste 0 906.5 1.5 52
2019-11-15 10:00:00 7.3 9 Noroeste 22 Noroeste 0 906.5 2.2 56
2019-11-15 09:00:00 5.8 12 Noroeste 26 Norte 0 905.7 1.1 59
2019-11-15 08:00:00 4.4 12 Noroeste 29 Noroeste 0 905 0.9 65
2019-11-15 07:00:00 4.9 16 Noroeste 30 Noroeste 0 904.3 -0.7 62
2019-11-15 06:00:00 5 12 Noroeste 36 Noroeste 0 904.6 -0.9 60
2019-11-15 05:00:00 5.3 17 Noroeste 33 Norte 0 904.1 -1.8 63
2019-11-15 04:00:00 5.7 14 Noroeste 28 Noroeste 0 905 -1.1 64
2019-11-15 03:00:00 6.1 11 Noroeste 29 Noroeste 0 905.5 -0.6 64
2019-11-15 02:00:00 6.1 14 Noroeste 29 Noroeste 0 905.9 -0.2 64
2019-11-15 01:00:00 6.5 11 Noroeste 26 Norte 0 906.1 -0.7 62
2019-11-15 00:00:00 6.7 12 Noroeste 32 Norte 0 906.1 -0.8 64
2019-11-14 23:00:00 6.3 14 Noroeste 25 Noroeste 0 906.1 -0.6 68
2019-11-14 22:00:00 7.2 9 Noroeste 21 Norte 0 906.8 0.6 64
2019-11-14 21:00:00 6.6 6 Norte 23 Norte 0 906.9 1 68
2019-11-14 20:00:00 6.4 11 Noroeste 28 Norte 0 906.7 2.2 68
2019-11-14 19:00:00 6.9 14 Noroeste 28 Noroeste 0 906.2 1.5 67
2019-11-14 18:00:00 7.1 12 Noroeste 35 Noroeste 0 905.9 1.2 69
2019-11-14 17:00:00 8.6 10 Norte 42 Norte 0 904.5 0.5 66
2019-11-14 16:00:00 8 18 Noroeste 48 Noroeste 1.4 904.7 -0.1 75
2019-11-14 15:00:00 10.2 13 Noroeste 31 Noroeste 0.3 904.7 -1.1 77
2019-11-14 14:00:00 13.1 10 Noroeste 36 Noroeste 0 904 -2.9 54
2019-11-14 13:00:00 12.6 14 Noroeste 39 Norte 0 904.8 -2.4 54
2019-11-14 12:00:00 13.4 15 Noroeste 41 Norte 0 905.8 -1.8 49
2019-11-14 11:00:00 11.7 15 Noroeste 39 Sur 0 906.9 -1.2 54
2019-11-14 10:00:00 11.6 9 Noroeste 36 Noroeste 0 907.2 -1.2 54
2019-11-14 09:00:00 10.8 17 Noroeste 32 Norte 0 907.6 -1.3 58
2019-11-14 08:00:00 10.3 14 Noroeste 33 Norte 0 908.1 -1.5 59
2019-11-14 07:00:00 10.7 13 Noroeste 30 Noroeste 0 908.4 -2.4 55
2019-11-14 06:00:00 11.3 9 Noroeste 26 Sudoeste 0 908.9 -3.2 51
2019-11-14 05:00:00 9.8 12 Noroeste 26 Nordeste 0 909.6 -3.7 67
2019-11-14 04:00:00 10 9 Noroeste 23 Noroeste 0 910.8 -2.9 63
2019-11-14 03:00:00 8.1 10 Oeste 18 Oeste 0 912.1 -2.9 66
2019-11-14 02:00:00 10.2 7 Noroeste 20 Nordeste 0 913.3 -2.1 61
2019-11-14 01:00:00 10.5 5 Noroeste 17 Oeste 0 913.7 -1.8 63
2019-11-14 00:00:00 10.9 4 Norte 20 Norte 0 915 -0.8 64
2019-11-13 23:00:00 11.1 6 Norte 16 Norte 0 915.4 -0.4 65
2019-11-13 22:00:00 11.5 6 Noroeste 15 Noroeste 0 915.5 1 63
2019-11-13 21:00:00 13.2 4 Noroeste 24 Noroeste 0 915.8 2.6 59
2019-11-13 20:00:00 13.1 9 Norte 24 Noroeste 0 915.8 3.1 60
2019-11-13 19:00:00 13.1 10 Noroeste 27 Noroeste 0 914.5 2 59
2019-11-13 18:00:00 14.1 14 Noroeste 37 Sudoeste 0 913.2 0.7 57
2019-11-13 17:00:00 15.4 13 Sudoeste 39 Noroeste 0 912.7 0.6 52
2019-11-13 16:00:00 17.3 8 Noroeste 41 Noroeste 0 912.5 0.6 49
2019-11-13 15:00:00 18 14 Noroeste 37 Noroeste 0 912.5 0.1 48
2019-11-13 14:00:00 16.5 11 Noroeste 38 Norte 0 912.1 0.4 50
2019-11-13 13:00:00 17 12 Noroeste 39 Norte 0 911.9 0.7 48
2019-11-13 12:00:00 17 12 Noroeste 38 Norte 0 912.4 1.2 53
2019-11-13 11:00:00 15.3 15 Noroeste 43 Noroeste 0 911.7 1 60
2019-11-13 10:00:00 13.8 13 Noroeste 27 Noroeste 0 911.2 0.6 64
2019-11-13 09:00:00 11.9 8 Noroeste 19 Noroeste 0 911.2 0.5 68
2019-11-13 08:00:00 10.6 9 Norte 22 Noroeste 0 910.7 -0.7 71
2019-11-13 07:00:00 10.2 10 Noroeste 30 Noroeste 0 910.6 -1.3 71
2019-11-13 06:00:00 10 13 Noroeste 26 Noroeste 0 910.7 -1.2 71
2019-11-13 05:00:00 10 13 Noroeste 27 Norte 0 911.4 -1.2 66
2019-11-13 04:00:00 10.7 12 Noroeste 29 Noroeste 0 911.9 -1 61
2019-11-13 03:00:00 10.4 12 Noroeste 29 Noroeste 0 911.9 -1.6 59
2019-11-13 02:00:00 10.8 11 Norte 31 Noroeste 0 912.6 -1.4 56
2019-11-13 01:00:00 10.1 15 Noroeste 29 Norte 0 912.9 -1.9 57
2019-11-13 00:00:00 9.8 14 Noroeste 27 Noroeste 0 913.5 -1.1 56
2019-11-12 23:00:00 9.8 12 Noroeste 27 Noroeste 0 914 -0.4 56
2019-11-12 22:00:00 10 10 Noroeste 22 Norte 0 914.8 0.9 56
2019-11-12 21:00:00 10 8 Norte 20 Noroeste 0 914.6 1.2 56
2019-11-12 20:00:00 10.7 8 Noroeste 22 Noroeste 0 914.4 1.4 53
2019-11-12 19:00:00 11.5 8 Noroeste 23 Noroeste 0 913.9 1.4 51
2019-11-12 18:00:00 12.6 8 Noroeste 20 Noroeste 0 913.4 0.5 45
2019-11-12 17:00:00 14.3 8 Noroeste 21 Noroeste 0 913 -0.6 42
2019-11-12 16:00:00 15.9 8 Noroeste 26 Noroeste 0 912.5 -1.6 40
2019-11-12 15:00:00 16.7 8 Noroeste 25 Norte 0 912.9 -2.2 38
2019-11-12 14:00:00 16.2 13 Noroeste 29 Noroeste 0 913.6 -1.9 39
2019-11-12 13:00:00 16 9 Noroeste 27 Noroeste 0 914.1 -0.4 42
2019-11-12 12:00:00 15.1 13 Noroeste 33 Noroeste 0 915.1 0 44
2019-11-12 11:00:00 14.4 10 Noroeste 27 Noroeste 0 915.5 0.5 44
2019-11-12 10:00:00 13.6 10 Noroeste 21 Noroeste 0 914.5 -0.4 48
2019-11-12 09:00:00 7.7 7 Noroeste 18 Noroeste 0 915.1 0.1 69
2019-11-12 08:00:00 7.1 8 Noroeste 20 Noroeste 0 915 0.8 71
2019-11-12 07:00:00 7.9 9 Noroeste 21 Noroeste 0 914.9 0.5 69
2019-11-12 06:00:00 8.3 10 Noroeste 21 Norte 0 915 -0.2 70
2019-11-12 05:00:00 7.4 12 Noroeste 23 Norte 0 914.2 -0.9 71
2019-11-12 04:00:00 8.9 7 Noroeste 25 Noroeste 0 914.4 -1.1 67
2019-11-12 03:00:00 8.8 10 Noroeste 19 Noroeste 0 915.2 -0.9 67
2019-11-12 02:00:00 8.8 8 Norte 21 Noroeste 0 915.1 -0.8 72
2019-11-12 01:00:00 9.8 11 Noroeste 27 Noroeste 0 915.5 -0.2 71
2019-11-12 00:00:00 10 9 Noroeste 19 Noroeste 0 916.1 0.4 76
2019-11-11 23:00:00 9.7 5 Noroeste 17 Noroeste 0 915.9 0.6 76
2019-11-11 22:00:00 10.2 10 Noroeste 21 Noroeste 0 915.7 0.5 71
2019-11-11 21:00:00 10.7 10 Noroeste 23 Norte 0 915.7 0.9 69
2019-11-11 20:00:00 10.6 9 Noroeste 24 Noroeste 0 915.3 1.2 64
2019-11-11 19:00:00 11.1 12 Noroeste 24 Norte 0 915.2 1 56
2019-11-11 18:00:00 11.6 11 Noroeste 27 Noroeste 0 914.8 0.4 52
2019-11-11 17:00:00 12.4 10 Noroeste 28 Noroeste 0 914.1 -0.9 49
2019-11-11 16:00:00 12.7 12 Noroeste 33 Noroeste 0 914.2 -1.3 46
2019-11-11 15:00:00 11.7 11 Noroeste 30 Noroeste 0 914.4 -1.7 45
2019-11-11 14:00:00 11.5 10 Noroeste 26 Noroeste 0 915 -1.3 44
2019-11-11 13:00:00 11.7 10 Noroeste 22 Noroeste 0 915.5 -1.3 43
2019-11-11 12:00:00 10.5 11 Noroeste 33 Norte 0 916.1 -1.3 49
2019-11-11 11:00:00 9.9 14 Noroeste 31 Norte 0 916.3 -1.1 52
2019-11-11 10:00:00 8.1 12 Noroeste 23 Noroeste 0 916.8 -0.2 58
2019-11-11 09:00:00 6.7 10 Noroeste 20 Norte 0 917.4 0.5 64
2019-11-11 08:00:00 6 10 Noroeste 19 Norte 0 917.4 0.3 64
2019-11-11 07:00:00 6.6 9 Norte 25 Norte 0 917 0.2 62
2019-11-11 06:00:00 6.8 11 Noroeste 26 Noroeste 0 916.9 -0.2 63
2019-11-11 05:00:00 7 12 Noroeste 25 Noroeste 0 917.1 0.2 63
2019-11-11 04:00:00 6.9 10 Noroeste 28 Noroeste 0 916.8 -0.2 62
2019-11-11 03:00:00 7.4 12 Noroeste 29 Noroeste 0 917.1 0 61
2019-11-11 02:00:00 7.5 15 Noroeste 31 Noroeste 0 916.9 -0.1 60
2019-11-11 01:00:00 7.7 11 Noroeste 29 Noroeste 0 917 0.4 61
2019-11-11 00:00:00 7.9 10 Noroeste 22 Noroeste 0 917.1 1.5 60
2019-11-10 23:00:00 8.1 9 Noroeste 20 Norte 0 917 1 59
2019-11-10 22:00:00 8.3 6 Noroeste 28 Noroeste 0 916.6 0.7 57
2019-11-10 21:00:00 8.3 15 Noroeste 27 Noroeste 0 915.6 0.4 57
2019-11-10 20:00:00 7.9 13 Noroeste 40 Noroeste 0 916 1 57
2019-11-10 19:00:00 8.4 7 Norte 36 Noroeste 0 915.9 0.6 51
2019-11-10 18:00:00 9.1 15 Noroeste 35 Norte 0 915.2 0.1 49
2019-11-10 17:00:00 9.8 18 Noroeste 33 Noroeste 0 915 -0.1 48
2019-11-10 16:00:00 10.9 14 Noroeste 27 Noroeste 0 915.3 -0.2 46
2019-11-10 15:00:00 11.6 13 Noroeste 32 Noroeste 0 915.1 -1.3 46
2019-11-10 14:00:00 11.6 10 Noroeste 29 Norte 0 915.1 -1.3 49
2019-11-10 13:00:00 11.2 15 Noroeste 29 Norte 0 915.5 -0.7 50
2019-11-10 12:00:00 10.2 13 Noroeste 29 Noroeste 0 916.4 0.8 58
2019-11-10 11:00:00 9.5 11 Noroeste 36 Noroeste 0 916.4 1.8 68
2019-11-10 10:00:00 9.6 14 Noroeste 30 Noroeste 0 916.2 2.2 64
2019-11-10 09:00:00 10.5 13 Noroeste 27 Norte 0 915.6 2.2 56
2019-11-10 08:00:00 10.2 14 Noroeste 35 Noroeste 0 914.6 0.6 59
2019-11-10 07:00:00 10.3 15 Noroeste 33 Norte 0 914 -0.6 60
2019-11-10 06:00:00 10.7 14 Noroeste 34 Noroeste 0 913.4 -1 58
2019-11-10 05:00:00 10.4 17 Noroeste 36 Noroeste 0 914 -1 61
2019-11-10 04:00:00 10.9 16 Noroeste 32 Noroeste 0 914.6 -1.8 65
2019-11-10 03:00:00 11.5 9 Noroeste 29 Noroeste 0 914.4 -3 66
2019-11-10 02:00:00 11.9 10 Noroeste 23 Noroeste 0 915 -3.1 64
2019-11-10 01:00:00 11.9 5 Noroeste 19 Norte 0 916.4 -1.9 61
2019-11-10 00:00:00 12 8 Noroeste 17 Noroeste 0 917.4 -1.9 55